Time;durP1;ratioP1;P1;durP2;ratioP2;P2;SDS_P1;SDS_P2;PMS_P1;PMS_P2;Temp;Humidity;BMP_temperature;BMP_pressure;BME280_temperature;BME280_humidity;BME280_pressure;Samples;Min_cycle;Max_cycle;Signal;HPM_P1;HPM_P2
2023/06/05 00:01:34;;;;;;;3.60;0.88;;;11.60;99.90;;;;;;5036285;28;20380;-76
2023/06/05 00:03:59;;;;;;;2.70;0.90;;;11.60;99.90;;;;;;5053792;28;20021;-76
2023/06/05 00:06:25;;;;;;;6.43;0.90;;;11.50;99.90;;;;;;5054014;28;20408;-75
2023/06/05 00:08:51;;;;;;;2.22;0.82;;;11.50;99.90;;;;;;5053975;28;20029;-75
2023/06/05 00:11:16;;;;;;;7.28;1.10;;;11.70;99.90;;;;;;5035881;28;20522;-76
2023/06/05 00:13:42;;;;;;;2.92;0.63;;;11.60;99.90;;;;;;5053865;28;20094;-76
2023/06/05 00:16:07;;;;;;;6.38;0.90;;;11.40;99.90;;;;;;5036762;28;20032;-77
2023/06/05 00:18:33;;;;;;;6.70;1.02;;;;;;;;;;5036185;28;20059;-75
2023/06/05 00:20:59;;;;;;;2.08;0.80;;;11.30;99.90;;;;;;5055458;28;20056;-77
2023/06/05 00:23:25;;;;;;;2.78;0.60;;;;;;;;;;5054371;28;20127;-75
2023/06/05 00:25:52;;;;;;;3.20;0.82;;;11.30;99.90;;;;;;5037496;28;20123;-77
2023/06/05 00:28:18;;;;;;;5.05;1.48;;;11.30;99.90;;;;;;5056042;28;20059;-77
2023/06/05 00:30:43;;;;;;;6.07;1.17;;;12.10;99.90;;;;;;5056714;28;20468;-77
2023/06/05 00:33:09;;;;;;;5.90;1.58;;;11.20;99.90;;;;;;5055865;28;20029;-76
2023/06/05 00:35:34;;;;;;;4.90;1.80;;;11.20;99.90;;;;;;5036383;28;20025;-77
2023/06/05 00:38:00;;;;;;;3.78;1.10;;;11.20;99.90;;;;;;5035985;28;20025;-76
2023/06/05 00:40:26;;;;;;;2.83;1.20;;;11.10;99.90;;;;;;5035655;28;20020;-75
2023/06/05 00:42:51;;;;;;;6.75;0.98;;;11.10;99.90;;;;;;5053701;28;20377;-77
2023/06/05 00:45:17;;;;;;;5.95;0.95;;;11.10;99.90;;;;;;5036166;28;20029;-75
2023/06/05 00:47:43;;;;;;;10.13;1.98;;;;;;;;;;5035644;28;20021;-75
2023/06/05 00:50:11;;;;;;;3.40;1.48;;;11.10;99.90;;;;;;5053500;28;20079;-75
2023/06/05 00:52:37;;;;;;;8.15;2.63;;;11.00;99.90;;;;;;5044177;22;20037;-75
2023/06/05 00:55:03;;;;;;;6.57;1.10;;;11.00;99.90;;;;;;5053307;28;20397;-75
2023/06/05 00:57:29;;;;;;;3.67;0.95;;;11.00;99.90;;;;;;5035743;28;20017;-77
2023/06/05 00:59:55;;;;;;;2.28;1.00;;;11.00;99.90;;;;;;5035347;28;20476;-76
2023/06/05 01:02:21;;;;;;;2.45;1.42;;;10.90;99.90;;;;;;5053563;28;20107;-76
2023/06/05 01:04:46;;;;;;;5.43;1.58;;;10.90;99.90;;;;;;5053425;28;20036;-76
2023/06/05 01:07:14;;;;;;;7.25;2.28;;;10.90;99.90;;;;;;5053514;28;20051;-77
2023/06/05 01:09:40;;;;;;;3.40;1.20;;;10.80;99.90;;;;;;5035839;28;20047;-77
2023/06/05 01:12:18;;;;;;;4.38;1.48;;;10.80;99.90;;;;;;5053067;28;20104;-75
2023/06/05 01:14:47;;;;;;;3.33;1.52;;;10.80;99.90;;;;;;5052348;28;20029;-75
2023/06/05 01:17:14;;;;;;;3.72;1.30;;;10.80;99.90;;;;;;5035437;28;20025;-76
2023/06/05 01:19:43;;;;;;;5.53;1.52;;;10.80;99.90;;;;;;5053149;28;20021;-77
2023/06/05 01:22:08;;;;;;;;;;;10.70;99.90;;;;;;5036012;28;20437;-77
2023/06/05 01:24:35;;;;;;;3.92;1.42;;;10.80;99.90;;;;;;5035343;28;19963;-75
2023/06/05 01:27:19;;;;;;;2.33;1.20;;;10.70;99.90;;;;;;5053391;28;20104;-76
2023/06/05 01:30:03;;;;;;;7.93;1.80;;;10.80;99.90;;;;;;5035343;28;20501;-76
2023/06/05 01:32:44;;;;;;;7.72;1.42;;;10.70;99.90;;;;;;5053060;28;20017;-76
2023/06/05 01:35:10;;;;;;;4.30;1.63;;;10.70;99.90;;;;;;5052843;28;20544;-76
2023/06/05 01:37:40;;;;;;;4.05;2.78;;;10.60;99.90;;;;;;5052755;28;20387;-75
2023/06/05 01:40:19;;;;;;;2.88;1.05;;;10.60;99.90;;;;;;5034869;28;20064;-77
2023/06/05 01:42:46;;;;;;;3.90;1.80;;;10.50;99.90;;;;;;5035542;28;20179;-77
2023/06/05 01:45:13;;;;;;;3.17;1.35;;;10.50;99.90;;;;;;5035542;28;20025;-75
2023/06/05 01:47:39;;;;;;;4.40;1.67;;;10.50;99.90;;;;;;5052848;28;20024;-75
2023/06/05 01:50:05;;;;;;;6.35;2.13;;;10.50;99.90;;;;;;5052847;28;20029;-76
2023/06/05 01:52:32;;;;;;;10.88;1.88;;;10.50;99.90;;;;;;5052827;28;20055;-76
2023/06/05 01:55:01;;;;;;;3.85;2.08;;;10.40;99.90;;;;;;5052761;28;20021;-75
2023/06/05 01:57:28;;;;;;;2.38;1.60;;;10.40;99.90;;;;;;5053097;28;20036;-76
2023/06/05 01:59:54;;;;;;;8.40;1.60;;;10.40;99.90;;;;;;5052958;28;20033;-75
2023/06/05 02:02:21;;;;;;;7.78;1.80;;;10.40;99.90;;;;;;5052994;28;20024;-75
2023/06/05 02:04:47;;;;;;;3.25;1.95;;;10.50;99.90;;;;;;5034940;28;20518;-77
2023/06/05 02:07:16;;;;;;;5.32;1.77;;;10.40;99.90;;;;;;5052847;28;20025;-76
2023/06/05 02:09:42;;;;;;;4.60;1.83;;;10.80;99.90;;;;;;5052651;28;20029;-76
2023/06/05 02:12:08;;;;;;;5.22;1.58;;;10.30;99.90;;;;;;5052782;28;20055;-76
2023/06/05 02:14:37;;;;;;;4.22;1.90;;;10.30;99.90;;;;;;5052485;28;20045;-77
2023/06/05 02:17:06;;;;;;;6.80;2.47;;;10.20;99.90;;;;;;5034828;28;20051;-76
2023/06/05 02:19:35;;;;;;;3.92;1.67;;;10.20;99.90;;;;;;5052858;28;20028;-76
2023/06/05 02:22:01;;;;;;;4.15;1.55;;;10.30;99.90;;;;;;5035268;28;20017;-76
2023/06/05 02:24:27;;;;;;;6.95;2.72;;;11.50;99.90;;;;;;5052836;28;20029;-76
2023/06/05 02:26:52;;;;;;;5.93;1.80;;;10.20;99.90;;;;;;5054481;28;20384;-76
2023/06/05 02:29:18;;;;;;;4.25;1.70;;;10.20;99.90;;;;;;5056466;28;20432;-76
2023/06/05 02:31:44;;;;;;;5.10;1.85;;;10.20;99.90;;;;;;5038724;28;20032;-76
2023/06/05 02:34:12;;;;;;;5.47;2.80;;;10.10;99.90;;;;;;5038369;28;20083;-75
2023/06/05 02:36:38;;;;;;;4.90;1.65;;;10.10;99.90;;;;;;5056499;28;20036;-76
2023/06/05 02:39:07;;;;;;;4.70;2.00;;;10.10;99.90;;;;;;5056144;28;20388;-75
2023/06/05 02:41:32;;;;;;;6.03;2.28;;;10.10;99.90;;;;;;5038179;28;20025;-76
2023/06/05 02:43:59;;;;;;;7.15;2.75;;;10.00;99.90;;;;;;5038148;28;20112;-75
2023/06/05 02:46:25;;;;;;;8.13;1.80;;;10.00;99.90;;;;;;5056116;28;20023;-76
2023/06/05 02:48:51;;;;;;;5.53;2.60;;;9.90;99.90;;;;;;5055926;28;20529;-76
2023/06/05 02:51:17;;;;;;;8.73;2.50;;;10.00;99.90;;;;;;5055732;28;20056;-76
2023/06/05 02:53:43;;;;;;;5.38;2.10;;;9.90;99.90;;;;;;5055826;28;20063;-77
2023/06/05 02:56:08;;;;;;;4.97;1.83;;;9.90;99.90;;;;;;5055995;28;20437;-76
2023/06/05 02:58:34;;;;;;;4.10;2.05;;;9.90;99.90;;;;;;5037682;28;20021;-76
2023/06/05 03:01:01;;;;;;;8.68;2.20;;;9.90;99.90;;;;;;5037877;28;20013;-77
2023/06/05 03:03:33;;;;;;;7.53;2.80;;;9.80;99.90;;;;;;5056172;28;20028;-76
2023/06/05 03:06:04;;;;;;;6.20;2.20;;;9.80;99.90;;;;;;5037685;28;20071;-76
2023/06/05 03:08:36;;;;;;;5.00;1.98;;;9.80;99.90;;;;;;5037610;28;20036;-76
2023/06/05 03:11:03;;;;;;;6.07;2.15;;;9.80;99.90;;;;;;5037754;28;20025;-76
2023/06/05 03:13:30;;;;;;;6.90;2.10;;;9.70;99.90;;;;;;5055533;28;20032;-76
2023/06/05 03:15:56;;;;;;;7.00;2.15;;;9.80;99.90;;;;;;5037286;28;20064;-76
2023/06/05 03:18:25;;;;;;;10.65;2.33;;;9.80;99.90;;;;;;5055264;28;20021;-76
2023/06/05 03:20:54;;;;;;;8.18;2.88;;;;;;;;;;5037513;28;20024;-76
2023/06/05 03:23:24;;;;;;;4.78;2.25;;;9.70;99.90;;;;;;5055445;28;20032;-77
2023/06/05 03:25:51;;;;;;;6.90;2.60;;;9.70;99.90;;;;;;5037511;28;20029;-77
2023/06/05 03:28:17;;;;;;;6.90;2.70;;;9.60;99.90;;;;;;5055362;28;20423;-77
2023/06/05 03:30:43;;;;;;;8.23;2.85;;;9.70;99.90;;;;;;5037315;28;20029;-77
2023/06/05 03:33:09;;;;;;;4.43;2.00;;;9.60;99.90;;;;;;5037493;28;20040;-77
2023/06/05 03:35:34;;;;;;;6.95;2.47;;;9.70;99.90;;;;;;5054909;28;20476;-76
2023/06/05 03:38:01;;;;;;;7.47;2.97;;;9.70;99.90;;;;;;5054484;28;20037;-76
2023/06/05 03:40:27;;;;;;;8.48;2.88;;;9.60;99.90;;;;;;5037328;28;20036;-76
2023/06/05 03:42:52;;;;;;;9.90;3.20;;;9.60;99.90;;;;;;5055351;28;20490;-76
2023/06/05 03:45:18;;;;;;;5.97;2.63;;;9.70;99.90;;;;;;5055241;28;20083;-76
2023/06/05 03:47:44;;;;;;;7.68;3.28;;;9.70;99.90;;;;;;5054892;28;20021;-77
2023/06/05 03:50:11;;;;;;;8.13;2.63;;;9.70;99.90;;;;;;5055086;28;20541;-77
2023/06/05 03:52:39;;;;;;;8.27;2.38;;;;;;;;;;5036795;28;20086;-76
2023/06/05 03:55:07;;;;;;;5.00;2.03;;;9.70;99.90;;;;;;5036506;28;20021;-77
2023/06/05 03:57:33;;;;;;;7.40;2.65;;;9.70;99.90;;;;;;5036766;28;20020;-77
2023/06/05 03:59:59;;;;;;;9.55;2.85;;;9.70;99.90;;;;;;5054495;28;20025;-76
2023/06/05 04:02:25;;;;;;;5.93;2.47;;;9.70;99.90;;;;;;5054636;28;20369;-76
2023/06/05 04:04:51;;;;;;;9.07;3.00;;;11.10;99.90;;;;;;5054837;28;20021;-76
2023/06/05 04:07:17;;;;;;;10.50;3.53;;;9.80;99.90;;;;;;5036760;28;20032;-76
2023/06/05 04:09:43;;;;;;;10.57;3.20;;;9.80;99.90;;;;;;5036453;28;20036;-76
2023/06/05 04:12:10;;;;;;;6.82;2.58;;;9.80;99.90;;;;;;5036609;28;20403;-76
2023/06/05 04:14:36;;;;;;;5.05;2.33;;;9.90;99.90;;;;;;5036561;28;20052;-76
2023/06/05 04:17:02;;;;;;;6.07;2.60;;;9.90;99.90;;;;;;5054812;28;20096;-76
2023/06/05 04:19:28;;;;;;;5.72;2.63;;;9.90;99.90;;;;;;5037096;28;20021;-76
2023/06/05 04:21:54;;;;;;;5.80;2.15;;;10.00;99.90;;;;;;5054051;28;20023;-76
2023/06/05 04:24:20;;;;;;;7.15;2.63;;;10.00;99.90;;;;;;5036475;28;20013;-75
2023/06/05 04:26:45;;;;;;;5.63;2.13;;;10.10;99.90;;;;;;5055039;28;20104;-75
2023/06/05 04:29:15;;;;;;;8.05;2.25;;;10.10;99.90;;;;;;5054376;28;20108;-76
2023/06/05 04:31:47;;;;;;;10.90;2.30;;;10.20;99.90;;;;;;5054095;28;20444;-76
2023/06/05 04:34:13;;;;;;;5.60;2.88;;;;;;;;;;5054093;28;20021;-76
2023/06/05 04:36:40;;;;;;;5.40;2.45;;;;;;;;;;5054040;28;20540;-76
2023/06/05 04:39:13;;;;;;;13.50;3.45;;;10.30;99.90;;;;;;5054493;28;20060;-76
2023/06/05 04:41:44;;;;;;;5.97;2.35;;;10.40;99.90;;;;;;5036178;28;20373;-76
2023/06/05 04:44:11;;;;;;;6.20;2.40;;;10.50;99.90;;;;;;5036107;28;20479;-76
2023/06/05 04:46:38;;;;;;;7.28;2.50;;;10.50;99.90;;;;;;5054346;28;20029;-76
2023/06/05 04:49:04;;;;;;;6.57;2.90;;;10.60;99.90;;;;;;5035818;28;20487;-75
2023/06/05 04:51:30;;;;;;;5.47;1.98;;;10.70;99.90;;;;;;5053480;28;20163;-75
2023/06/05 04:53:55;;;;;;;8.70;2.58;;;11.30;99.90;;;;;;5053847;28;20063;-77
2023/06/05 04:56:21;;;;;;;8.00;3.25;;;10.80;99.90;;;;;;5035701;28;20013;-75
2023/06/05 04:58:47;;;;;;;5.88;2.28;;;10.90;99.90;;;;;;5035913;28;20039;-76
2023/06/05 05:01:13;;;;;;;4.90;2.00;;;11.00;99.90;;;;;;5035798;28;20115;-76
2023/06/05 05:03:42;;;;;;;8.77;2.55;;;10.90;99.90;;;;;;5054098;28;20137;-76
2023/06/05 05:06:08;;;;;;;11.27;2.35;;;11.00;99.90;;;;;;5053719;28;20040;-77
2023/06/05 05:08:36;;;;;;;7.25;2.85;;;11.20;99.90;;;;;;5053490;28;20025;-77
2023/06/05 05:11:01;;;;;;;5.55;1.70;;;11.50;99.90;;;;;;5053281;28;20036;-76
2023/06/05 05:13:27;;;;;;;6.38;2.50;;;11.50;99.90;;;;;;5053352;28;20154;-76
2023/06/05 05:15:53;;;;;;;6.97;2.42;;;11.40;99.90;;;;;;5053092;28;20108;-76
2023/06/05 05:18:19;;;;;;;7.60;2.35;;;11.60;99.90;;;;;;5053252;28;20052;-76
2023/06/05 05:20:45;;;;;;;6.18;2.55;;;12.00;99.90;;;;;;5035435;28;20017;-76
2023/06/05 05:23:10;;;;;;;5.28;2.25;;;11.70;99.90;;;;;;5053242;28;20021;-77
2023/06/05 05:25:38;;;;;;;6.38;2.30;;;11.70;99.90;;;;;;5053188;28;20082;-77
2023/06/05 05:28:04;;;;;;;10.20;2.63;;;11.70;99.90;;;;;;5035166;28;20025;-75
2023/06/05 05:30:30;;;;;;;9.73;2.17;;;11.80;99.90;;;;;;5035025;28;20029;-76
2023/06/05 05:32:56;;;;;;;5.50;2.00;;;12.00;99.90;;;;;;5052984;28;20040;-75
2023/06/05 05:35:22;;;;;;;3.42;1.50;;;12.20;99.90;;;;;;5053015;28;20480;-76
2023/06/05 05:37:47;;;;;;;5.78;2.45;;;12.20;99.90;;;;;;5052900;28;20028;-76
2023/06/05 05:40:13;;;;;;;3.95;1.92;;;12.20;99.90;;;;;;5052740;28;20025;-76
2023/06/05 05:42:38;;;;;;;4.90;2.10;;;12.60;99.90;;;;;;5034958;28;20028;-73
2023/06/05 05:45:05;;;;;;;5.88;1.85;;;13.10;99.90;;;;;;5053544;28;20033;-74
2023/06/05 05:47:30;;;;;;;7.05;2.13;;;12.40;99.90;;;;;;5052751;28;20488;-74
2023/06/05 05:49:56;;;;;;;5.82;2.08;;;12.40;99.90;;;;;;5052929;28;20025;-73
2023/06/05 05:52:22;;;;;;;7.35;3.25;;;12.80;99.90;;;;;;5052552;28;20120;-73
2023/06/05 05:54:48;;;;;;;6.40;2.53;;;12.50;99.90;;;;;;5052604;28;20032;-73
2023/06/05 05:57:13;;;;;;;5.60;2.38;;;12.60;99.90;;;;;;5034815;28;20018;-73
2023/06/05 05:59:42;;;;;;;5.70;2.38;;;12.60;99.90;;;;;;5034767;28;20488;-73
2023/06/05 06:02:09;;;;;;;6.05;3.20;;;12.60;99.90;;;;;;5036886;28;20166;-73
2023/06/05 06:04:35;;;;;;;5.15;2.10;;;12.70;99.90;;;;;;5038571;28;20052;-73
2023/06/05 06:07:01;;;;;;;8.15;2.72;;;12.80;99.90;;;;;;5056390;28;20028;-73
2023/06/05 06:09:27;;;;;;;4.60;2.22;;;12.90;99.90;;;;;;5056296;28;20021;-73
2023/06/05 06:11:55;;;;;;;11.02;2.65;;;13.00;99.90;;;;;;5056018;28;20056;-73
2023/06/05 06:14:22;;;;;;;6.43;2.65;;;13.00;99.90;;;;;;5054753;28;20376;-73
2023/06/05 06:16:48;;;;;;;6.03;2.40;;;13.00;99.90;;;;;;5037989;28;20475;-73
2023/06/05 06:19:14;;;;;;;5.20;2.30;;;13.10;99.90;;;;;;5056131;28;20029;-73
2023/06/05 06:21:40;;;;;;;6.63;2.42;;;13.10;99.90;;;;;;5056100;28;20071;-73
2023/06/05 06:24:06;;;;;;;12.02;3.13;;;13.30;99.90;;;;;;5038105;28;20020;-73
2023/06/05 06:26:31;;;;;;;7.60;3.28;;;13.80;99.90;;;;;;5038171;28;20127;-73
2023/06/05 06:28:59;;;;;;;5.97;2.85;;;13.60;99.90;;;;;;5056043;28;20521;-73
2023/06/05 06:31:25;;;;;;;5.93;2.10;;;13.60;99.90;;;;;;5038103;28;20021;-73
2023/06/05 06:33:50;;;;;;;7.25;3.22;;;13.70;99.90;;;;;;5056050;28;20036;-73
2023/06/05 06:36:19;;;;;;;6.38;2.15;;;13.60;99.90;;;;;;5037875;28;20029;-73
2023/06/05 06:38:45;;;;;;;;;;;13.70;99.90;;;;;;5038318;28;20017;-73
2023/06/05 06:41:10;;;;;;;5.63;3.00;;;13.70;99.90;;;;;;5055881;28;19999;-73
2023/06/05 06:43:36;;;;;;;5.80;2.53;;;13.90;99.90;;;;;;5056063;28;20032;-73
2023/06/05 06:46:02;;;;;;;5.47;2.38;;;13.90;99.90;;;;;;5037747;28;20032;-73
2023/06/05 06:48:27;;;;;;;5.68;2.50;;;14.30;99.90;;;;;;5055567;28;20479;-73
2023/06/05 06:50:53;;;;;;;7.55;2.50;;;14.30;99.90;;;;;;5037695;28;20029;-74
2023/06/05 06:53:19;;;;;;;5.22;2.63;;;14.40;99.90;;;;;;5056179;28;20028;-74
2023/06/05 06:55:45;;;;;;;4.90;1.92;;;14.60;99.90;;;;;;5055329;28;20479;-74
2023/06/05 06:58:11;;;;;;;4.22;2.30;;;14.80;99.90;;;;;;5055398;28;20021;-74
2023/06/05 07:00:37;;;;;;;5.72;2.35;;;14.70;99.90;;;;;;5056027;28;20029;-74
2023/06/05 07:03:02;;;;;;;4.15;2.47;;;14.80;99.90;;;;;;5055484;28;20027;-74
2023/06/05 07:05:28;;;;;;;4.07;2.20;;;14.70;99.90;;;;;;5037669;28;20049;-74
2023/06/05 07:07:54;;;;;;;5.47;2.28;;;14.60;99.90;;;;;;5055289;28;20040;-73
2023/06/05 07:10:19;;;;;;;5.60;3.10;;;14.70;99.90;;;;;;5055165;28;20032;-73
2023/06/05 07:12:45;;;;;;;5.50;2.83;;;14.80;99.90;;;;;;5054410;28;20033;-74
2023/06/05 07:15:11;;;;;;;4.28;2.03;;;15.60;99.90;;;;;;5055489;28;20096;-74
2023/06/05 07:17:36;;;;;;;4.05;2.30;;;15.20;99.90;;;;;;5055422;28;20033;-73
2023/06/05 07:20:04;;;;;;;9.27;2.90;;;15.30;99.90;;;;;;5055117;28;20135;-74
2023/06/05 07:22:30;;;;;;;7.03;2.23;;;15.30;99.90;;;;;;5037329;28;20498;-74
2023/06/05 07:24:56;;;;;;;3.83;1.85;;;;;;;;;;5037086;28;20024;-74
2023/06/05 07:27:22;;;;;;;5.93;2.38;;;15.60;99.90;;;;;;5053593;28;20029;-74
2023/06/05 07:29:47;;;;;;;4.45;2.05;;;15.70;99.90;;;;;;5053571;28;20488;-73
2023/06/05 07:32:13;;;;;;;4.25;2.10;;;15.80;99.90;;;;;;5055004;28;20091;-74
2023/06/05 07:34:39;;;;;;;3.05;1.30;;;15.90;99.90;;;;;;5054762;28;20537;-74
2023/06/05 07:37:07;;;;;;;4.30;1.35;;;15.90;99.90;;;;;;5035870;28;20484;-73
2023/06/05 07:39:33;;;;;;;4.03;1.38;;;16.00;99.90;;;;;;5055002;28;20044;-74
2023/06/05 07:41:58;;;;;;;4.00;1.92;;;16.10;99.90;;;;;;5054695;28;20053;-73
2023/06/05 07:44:24;;;;;;;3.03;1.67;;;16.30;99.90;;;;;;5037205;28;20021;-74
2023/06/05 07:46:50;;;;;;;5.25;2.00;;;16.30;99.90;;;;;;5036691;28;20111;-74
2023/06/05 07:49:17;;;;;;;3.95;1.75;;;16.20;99.90;;;;;;5054425;28;20047;-74
2023/06/05 07:51:43;;;;;;;3.47;1.42;;;16.20;99.90;;;;;;5036644;28;20128;-74
2023/06/05 07:54:11;;;;;;;5.05;2.20;;;16.40;99.90;;;;;;5036797;28;20029;-74
2023/06/05 07:56:38;;;;;;;3.15;1.90;;;16.50;99.90;;;;;;5036510;28;20028;-73
2023/06/05 07:59:05;;;;;;;3.13;1.70;;;16.50;99.90;;;;;;5054262;28;20041;-74
2023/06/05 08:01:36;;;;;;;5.22;2.63;;;16.50;99.90;;;;;;5036362;28;20380;-74
2023/06/05 08:04:02;;;;;;;4.50;2.22;;;16.60;99.90;;;;;;5036578;28;20545;-74
2023/06/05 08:06:27;;;;;;;6.30;1.77;;;16.60;99.90;;;;;;5054386;28;20093;-74
2023/06/05 08:08:53;;;;;;;4.18;1.75;;;16.80;99.90;;;;;;5054263;28;20107;-73
2023/06/05 08:11:19;;;;;;;4.03;1.65;;;16.80;99.90;;;;;;5054240;28;20032;-74
2023/06/05 08:13:45;;;;;;;3.63;1.38;;;16.90;99.90;;;;;;5054259;28;20056;-74
2023/06/05 08:16:10;;;;;;;4.20;1.70;;;17.00;99.90;;;;;;5054453;28;20484;-74
2023/06/05 08:18:36;;;;;;;3.00;1.40;;;17.10;99.90;;;;;;5053998;28;20030;-74
2023/06/05 08:21:02;;;;;;;2.67;1.30;;;17.20;99.90;;;;;;5036491;28;20021;-74
2023/06/05 08:23:28;;;;;;;3.90;1.63;;;17.30;99.90;;;;;;5054064;28;20541;-74
2023/06/05 08:25:54;;;;;;;3.70;1.48;;;17.30;99.90;;;;;;5035654;28;20025;-74
2023/06/05 08:28:20;;;;;;;3.53;1.10;;;17.20;99.90;;;;;;5053898;28;20104;-74
2023/06/05 08:30:45;;;;;;;5.03;1.65;;;17.20;99.90;;;;;;5053775;28;20049;-73
2023/06/05 08:33:11;;;;;;;3.72;1.27;;;17.20;99.90;;;;;;5036129;28;20025;-74
2023/06/05 08:35:40;;;;;;;2.60;1.55;;;17.20;99.90;;;;;;5053819;28;20402;-73
2023/06/05 08:38:06;;;;;;;2.90;1.23;;;17.30;99.90;;;;;;5053959;28;20021;-73
2023/06/05 08:40:32;;;;;;;1.60;0.60;;;17.30;99.90;;;;;;5035672;28;20025;-74
2023/06/05 08:43:00;;;;;;;3.70;1.92;;;17.40;99.90;;;;;;5053759;28;20025;-73
2023/06/05 08:45:25;;;;;;;8.32;1.20;;;17.50;99.90;;;;;;5053533;28;20025;-74
2023/06/05 08:47:52;;;;;;;4.43;1.52;;;17.70;99.90;;;;;;5053540;28;20108;-74
2023/06/05 08:50:18;;;;;;;5.53;1.63;;;17.80;99.90;;;;;;5053576;28;20064;-74
2023/06/05 08:52:45;;;;;;;4.22;2.25;;;17.80;99.90;;;;;;5053474;28;20395;-74
2023/06/05 08:55:11;;;;;;;3.47;1.00;;;17.90;99.90;;;;;;5053588;28;20025;-74
2023/06/05 08:57:44;;;;;;;3.05;1.30;;;18.00;99.90;;;;;;5053316;28;20025;-74
2023/06/05 09:00:11;;;;;;;4.28;1.25;;;18.20;99.90;;;;;;5053499;28;20033;-74
2023/06/05 09:02:39;;;;;;;5.75;1.45;;;18.30;99.90;;;;;;5035790;28;20025;-74
2023/06/05 09:05:05;;;;;;;2.80;1.42;;;18.50;99.90;;;;;;5053548;28;20100;-74
2023/06/05 09:07:32;;;;;;;2.78;1.55;;;18.60;99.90;;;;;;5035774;28;20044;-74
2023/06/05 09:09:58;;;;;;;4.18;1.52;;;18.80;99.90;;;;;;5053165;28;20483;-74
2023/06/05 09:12:25;;;;;;;5.40;1.48;;;18.80;99.90;;;;;;5053198;28;20075;-74
2023/06/05 09:14:51;;;;;;;2.80;1.00;;;19.00;99.90;;;;;;5053193;28;20025;-74
2023/06/05 09:17:17;;;;;;;3.15;1.00;;;19.00;99.90;;;;;;5035499;28;20553;-74
2023/06/05 09:19:45;;;;;;;5.40;1.23;;;19.10;99.90;;;;;;5035316;28;20078;-74
2023/06/05 09:22:12;;;;;;;2.92;1.13;;;19.00;99.90;;;;;;5053236;28;20021;-74
2023/06/05 09:24:42;;;;;;;3.28;0.50;;;19.00;99.90;;;;;;5053101;28;20056;-74
2023/06/05 09:27:16;;;;;;;2.15;0.60;;;19.10;99.90;;;;;;5053205;28;20522;-74
2023/06/05 09:29:43;;;;;;;2.55;1.20;;;19.30;99.90;;;;;;5035512;28;20493;-74
2023/06/05 09:32:15;;;;;;;3.05;1.13;;;19.50;99.90;;;;;;5053381;28;20025;-74
2023/06/05 09:34:41;;;;;;;1.77;0.82;;;19.60;99.90;;;;;;5053602;28;20021;-74
2023/06/05 09:37:09;;;;;;;2.33;1.00;;;19.60;99.90;;;;;;5055217;28;20028;-74
2023/06/05 09:39:39;;;;;;;1.38;0.50;;;19.80;99.90;;;;;;5057067;28;20039;-74
2023/06/05 09:42:06;;;;;;;2.45;1.13;;;19.80;99.00;;;;;;5039098;28;20024;-74
2023/06/05 09:44:33;;;;;;;2.28;0.65;;;19.80;99.30;;;;;;5056725;28;20427;-74
2023/06/05 09:47:23;;;;;;;3.33;1.10;;;19.60;99.90;;;;;;5057088;28;20021;-74
2023/06/05 09:49:49;;;;;;;3.13;0.50;;;19.80;99.90;;;;;;5039036;28;20111;-74
2023/06/05 09:52:14;;;;;;;4.13;0.80;;;20.00;99.90;;;;;;5039029;28;20051;-74
2023/06/05 09:54:44;;;;;;;3.97;0.88;;;20.00;99.90;;;;;;5038890;28;20036;-74
2023/06/05 09:57:12;;;;;;;2.15;0.73;;;20.10;99.90;;;;;;5038742;28;20361;-74
2023/06/05 09:59:55;;;;;;;2.83;0.98;;;20.20;99.90;;;;;;5056880;28;20017;-73
2023/06/05 10:02:25;;;;;;;1.45;0.47;;;20.50;99.90;;;;;;5038788;28;20125;-74
2023/06/05 10:04:59;;;;;;;3.25;0.40;;;22.30;99.10;;;;;;5038767;28;20021;-73
2023/06/05 10:07:24;;;;;;;0.85;0.20;;;21.00;98.10;;;;;;5056908;28;20032;-75
2023/06/05 10:09:50;;;;;;;3.70;0.70;;;21.10;97.10;;;;;;5056674;28;20021;-75
2023/06/05 10:12:17;;;;;;;2.63;0.68;;;21.20;98.40;;;;;;5039822;28;20020;-75
2023/06/05 10:14:43;;;;;;;0.73;0.30;;;21.30;96.80;;;;;;5038728;28;20487;-74
2023/06/05 10:17:12;;;;;;;1.58;0.45;;;21.50;97.00;;;;;;5038413;28;20029;-74
2023/06/05 10:19:42;;;;;;;0.65;0.35;;;21.60;96.60;;;;;;5056393;28;20025;-74
2023/06/05 10:22:11;;;;;;;2.78;0.50;;;21.80;96.90;;;;;;5056497;28;20078;-74
2023/06/05 10:24:51;;;;;;;1.85;0.50;;;22.00;96.00;;;;;;5056373;28;20102;-73
2023/06/05 10:27:32;;;;;;;2.45;0.55;;;22.00;95.60;;;;;;5056154;28;20360;-73
2023/06/05 10:30:28;;;;;;;0.85;0.43;;;22.10;95.10;;;;;;5056044;28;20028;-73
2023/06/05 10:33:17;;;;;;;1.50;0.52;;;22.20;94.50;;;;;;5038399;28;20119;-73
2023/06/05 10:36:16;;;;;;;0.95;0.30;;;22.20;94.10;;;;;;5056620;28;20067;-73
2023/06/05 10:38:41;;;;;;;2.10;0.80;;;22.30;94.20;;;;;;5038120;28;20020;-74
2023/06/05 10:41:07;;;;;;;3.30;0.40;;;22.60;93.30;;;;;;5038125;28;20021;-74
2023/06/05 10:43:47;;;;;;;3.42;1.10;;;22.80;93.20;;;;;;5055856;28;20025;-73
2023/06/05 10:46:38;;;;;;;2.72;1.35;;;23.00;92.00;;;;;;5055915;28;20108;-72
2023/06/05 10:49:15;;;;;;;2.25;0.45;;;22.90;91.20;;;;;;5055581;28;20029;-72
2023/06/05 10:51:45;;;;;;;2.05;0.95;;;22.60;92.40;;;;;;5055692;28;20040;-73
2023/06/05 10:54:16;;;;;;;3.85;0.80;;;22.40;93.60;;;;;;5055687;28;20365;-74
2023/06/05 10:56:57;;;;;;;1.52;0.77;;;23.00;93.60;;;;;;5055578;28;20361;-73
2023/06/05 10:59:24;;;;;;;1.60;0.68;;;22.50;92.90;;;;;;5037829;28;20021;-73
2023/06/05 11:02:16;;;;;;;3.75;1.08;;;22.40;92.90;;;;;;5056367;28;20486;-72
2023/06/05 11:04:47;;;;;;;2.03;0.93;;;22.40;93.60;;;;;;5055383;28;20023;-73
2023/06/05 11:07:24;;;;;;;1.67;0.70;;;22.40;93.50;;;;;;5055624;28;20503;-72
2023/06/05 11:10:01;;;;;;;2.42;0.57;;;22.70;93.50;;;;;;5055199;28;20480;-73
2023/06/05 11:12:39;;;;;;;1.88;0.82;;;22.90;92.00;;;;;;5037586;28;20036;-73
2023/06/05 11:15:08;;;;;;;3.75;0.80;;;23.20;91.50;;;;;;5055130;28;20082;-73
2023/06/05 11:17:37;;;;;;;0.98;0.55;;;23.40;90.30;;;;;;5037510;28;20033;-73
2023/06/05 11:20:09;;;;;;;1.38;0.70;;;23.40;89.70;;;;;;5055228;28;20021;-73
2023/06/05 11:22:53;;;;;;;1.35;0.57;;;23.60;90.80;;;;;;5055392;28;20028;-73
2023/06/05 11:25:26;;;;;;;2.33;0.90;;;23.90;90.30;;;;;;5037336;28;20029;-73
2023/06/05 11:28:07;;;;;;;0.82;0.30;;;23.90;89.50;;;;;;5055045;28;20393;-73
2023/06/05 11:30:42;;;;;;;2.08;0.60;;;23.70;89.40;;;;;;5037355;28;20029;-73
2023/06/05 11:33:12;;;;;;;1.73;0.55;;;23.70;87.60;;;;;;5055618;28;20032;-73
2023/06/05 11:35:41;;;;;;;1.75;0.40;;;23.80;88.30;;;;;;5037061;28;20032;-73
2023/06/05 11:38:12;;;;;;;3.38;0.50;;;23.80;86.90;;;;;;5055289;28;20532;-73
2023/06/05 11:40:39;;;;;;;0.98;0.47;;;23.90;87.50;;;;;;5054921;28;20427;-73
2023/06/05 11:43:09;;;;;;;3.92;0.68;;;24.00;84.50;;;;;;5054869;28;20017;-73
2023/06/05 11:45:37;;;;;;;1.58;0.40;;;23.90;88.20;;;;;;5054812;28;20040;-73
2023/06/05 11:48:07;;;;;;;6.38;0.90;;;23.80;84.60;;;;;;5054632;28;20017;-73
2023/06/05 11:50:34;;;;;;;2.72;0.20;;;23.90;84.60;;;;;;5037033;28;20025;-73
2023/06/05 11:53:11;;;;;;;1.35;0.38;;;23.90;85.10;;;;;;5054038;28;20029;-73
2023/06/05 11:56:10;;;;;;;1.88;0.40;;;24.10;85.80;;;;;;5036258;28;20500;-73
2023/06/05 11:58:29;;;;;;;2.28;0.63;;;24.70;83.40;;;;;;5050294;28;20031;-73
2023/06/05 12:01:05;;;;;;;1.00;0.40;;;24.70;84.40;;;;;;5054321;28;20442;-73
2023/06/05 12:03:32;;;;;;;0.68;0.20;;;25.00;82.50;;;;;;5055177;28;20028;-73
2023/06/05 12:05:58;;;;;;;2.20;0.45;;;25.10;82.30;;;;;;5036566;28;20098;-73
2023/06/05 12:08:25;;;;;;;0.73;0.20;;;25.20;81.20;;;;;;5035976;28;20024;-73
2023/06/05 12:10:56;;;;;;;1.38;0.15;;;25.20;81.00;;;;;;5054498;28;20491;-73
2023/06/05 12:13:21;;;;;;;1.05;0.30;;;25.50;80.80;;;;;;5036455;28;20538;-73
2023/06/05 12:15:59;;;;;;;1.73;0.22;;;25.70;79.10;;;;;;5054273;28;20028;-73
2023/06/05 12:18:35;;;;;;;2.85;0.32;;;26.10;75.00;;;;;;5054234;28;20032;-73
2023/06/05 12:21:01;;;;;;;1.27;0.20;;;25.90;74.70;;;;;;5036315;28;20048;-73
2023/06/05 12:23:31;;;;;;;0.55;0.20;;;26.00;76.80;;;;;;5036345;28;20044;-73
2023/06/05 12:26:04;;;;;;;2.97;0.52;;;26.00;74.40;;;;;;5036432;28;20024;-73
2023/06/05 12:28:31;;;;;;;3.00;0.43;;;25.70;73.50;;;;;;5054042;28;20082;-73
2023/06/05 12:30:57;;;;;;;1.35;0.20;;;25.70;77.30;;;;;;5053866;28;20044;-73
2023/06/05 12:33:24;;;;;;;2.42;0.22;;;25.90;75.70;;;;;;5054030;28;20051;-73
2023/06/05 12:36:06;;;;;;;6.55;1.00;;;25.80;74.50;;;;;;5036289;28;20029;-73
2023/06/05 12:38:37;;;;;;;2.53;0.40;;;26.10;76.90;;;;;;5036305;28;20096;-73
2023/06/05 12:41:06;;;;;;;3.72;0.73;;;26.10;75.90;;;;;;5054074;28;20028;-73
2023/06/05 12:43:32;;;;;;;0.17;0.10;;;26.50;76.60;;;;;;5054080;28;20021;-73
2023/06/05 12:45:58;;;;;;;3.15;0.47;;;26.80;74.60;;;;;;5036039;28;20029;-73
2023/06/05 12:48:23;;;;;;;2.65;0.28;;;26.60;72.50;;;;;;5053643;28;20027;-73
2023/06/05 12:50:50;;;;;;;0.70;0.10;;;26.70;73.50;;;;;;5053695;28;20059;-73
2023/06/05 12:53:15;;;;;;;4.03;0.77;;;26.90;72.60;;;;;;5035755;28;20067;-75
2023/06/05 12:55:41;;;;;;;0.63;0.10;;;27.10;71.90;;;;;;5035711;28;20476;-73